createdAt,value
2023-05-23T00:00:02.792Z,100539.00
2023-05-23T00:02:30.838Z,100550.00
2023-05-23T00:05:03.713Z,100538.00
2023-05-23T00:07:32.540Z,100563.00
2023-05-23T00:10:00.519Z,100556.00
2023-05-23T00:12:29.546Z,100560.00
2023-05-23T00:14:57.632Z,100566.00
2023-05-23T00:17:26.481Z,100557.00
2023-05-23T00:19:56.098Z,100551.00
2023-05-23T00:22:25.701Z,100558.00
2023-05-23T00:24:54.007Z,100562.00
2023-05-23T00:27:21.980Z,100518.00
2023-05-23T00:29:50.028Z,100532.00
2023-05-23T00:32:18.032Z,100552.00
2023-05-23T00:34:46.878Z,100555.00
2023-05-23T00:37:15.261Z,100546.00
2023-05-23T00:39:44.605Z,100561.00
2023-05-23T00:42:12.790Z,100561.00
2023-05-23T00:44:40.953Z,100542.00
2023-05-23T00:47:09.739Z,100556.00
2023-05-23T00:49:37.775Z,100530.00
2023-05-23T00:52:06.754Z,100543.00
2023-05-23T00:54:35.831Z,100559.00
2023-05-23T00:57:05.780Z,100519.00
2023-05-23T00:59:34.697Z,100551.00
2023-05-23T01:02:03.971Z,100559.00
2023-05-23T01:04:34.346Z,100557.00
2023-05-23T01:07:02.803Z,100535.00
2023-05-23T01:09:31.392Z,100542.00
2023-05-23T01:12:15.424Z,100533.00
2023-05-23T01:14:48.660Z,100558.00
2023-05-23T01:17:22.398Z,100548.00
2023-05-23T01:19:58.440Z,100527.00
2023-05-23T01:22:41.541Z,100541.00
2023-05-23T01:25:24.399Z,100540.00
2023-05-23T01:27:56.940Z,100557.00
2023-05-23T01:30:26.632Z,100554.00
2023-05-23T01:32:57.771Z,100560.00
2023-05-23T01:35:28.055Z,100570.00
2023-05-23T01:37:56.444Z,100561.00
2023-05-23T01:40:25.896Z,100551.00
2023-05-23T01:42:57.691Z,100570.00
2023-05-23T01:45:28.201Z,100541.00
2023-05-23T01:47:57.776Z,100572.00
2023-05-23T01:50:26.814Z,100569.00
2023-05-23T01:52:56.120Z,100578.00
2023-05-23T01:55:26.709Z,100569.00
2023-05-23T01:57:58.066Z,100572.00
2023-05-23T02:00:26.304Z,100582.00
2023-05-23T02:02:54.248Z,100577.00
2023-05-23T02:05:22.267Z,100577.00
2023-05-23T02:07:50.456Z,100587.00
2023-05-23T02:10:18.669Z,100569.00
2023-05-23T02:12:46.584Z,100580.00
2023-05-23T02:15:17.497Z,100561.00
2023-05-23T02:17:45.529Z,100574.00
2023-05-23T02:20:14.516Z,100600.00
2023-05-23T02:22:42.662Z,100591.00
2023-05-23T02:25:11.060Z,100600.00
2023-05-23T02:27:39.069Z,100600.00
2023-05-23T02:30:09.158Z,100602.00
2023-05-23T02:32:38.836Z,100603.00
2023-05-23T02:35:07.549Z,100609.00
2023-05-23T02:37:35.493Z,100605.00
2023-05-23T02:40:04.569Z,100590.00
2023-05-23T02:42:32.557Z,100602.00
2023-05-23T02:45:00.512Z,100592.00
2023-05-23T02:47:28.561Z,100613.00
2023-05-23T02:49:58.012Z,100587.00
2023-05-23T02:52:26.583Z,100607.00
2023-05-23T02:54:54.585Z,100600.00
2023-05-23T02:57:22.534Z,100587.00
2023-05-23T02:59:50.468Z,100594.00
2023-05-23T03:02:18.429Z,100604.00
2023-05-23T03:04:46.545Z,100606.00
2023-05-23T03:07:27.530Z,100591.00
2023-05-23T03:09:56.630Z,100606.00
2023-05-23T03:12:24.515Z,100602.00
2023-05-23T03:14:52.449Z,100601.00
2023-05-23T03:17:20.468Z,100605.00
2023-05-23T03:19:48.391Z,100600.00
2023-05-23T03:22:17.667Z,100596.00
2023-05-23T03:24:45.527Z,100595.00
2023-05-23T03:27:13.412Z,100602.00
2023-05-23T03:29:41.315Z,100606.00
2023-05-23T03:32:09.403Z,100599.00
2023-05-23T03:34:38.702Z,100600.00
2023-05-23T03:37:06.864Z,100599.00
2023-05-23T03:39:37.352Z,100591.00
2023-05-23T03:42:07.974Z,100586.00
2023-05-23T03:44:35.871Z,100592.00
2023-05-23T03:47:03.753Z,100571.00
2023-05-23T03:49:32.846Z,100595.00
2023-05-23T03:52:00.921Z,100594.00
2023-05-23T03:54:28.826Z,100595.00
2023-05-23T03:56:58.168Z,100592.00
2023-05-23T03:59:26.347Z,100604.00
2023-05-23T04:01:54.325Z,100592.00
2023-05-23T04:04:22.350Z,100608.00
2023-05-23T04:06:50.677Z,100608.00
2023-05-23T04:09:19.166Z,100605.00
2023-05-23T04:11:47.513Z,100610.00
2023-05-23T04:14:17.530Z,100604.00
2023-05-23T04:16:45.551Z,100596.00
2023-05-23T04:19:13.680Z,100619.00
2023-05-23T04:21:41.684Z,100597.00
2023-05-23T04:24:09.629Z,100600.00
2023-05-23T04:26:37.686Z,100618.00
2023-05-23T04:29:06.608Z,100616.00
2023-05-23T04:31:36.006Z,100595.00
2023-05-23T04:34:04.018Z,100604.00
2023-05-23T04:36:32.061Z,100598.00
2023-05-23T04:39:00.063Z,100617.00
2023-05-23T04:41:28.453Z,100612.00
2023-05-23T04:43:58.579Z,100614.00
2023-05-23T04:46:27.587Z,100599.00
2023-05-23T04:48:58.822Z,100599.00
2023-05-23T04:51:27.404Z,100613.00
2023-05-23T04:53:55.901Z,100613.00
2023-05-23T04:56:28.225Z,100611.00
2023-05-23T04:58:57.098Z,100606.00
2023-05-23T05:01:25.160Z,100607.00
2023-05-23T05:03:53.385Z,100601.00
2023-05-23T05:06:24.416Z,100620.00
2023-05-23T05:08:52.466Z,100600.00
2023-05-23T05:11:20.423Z,100601.00
2023-05-23T05:13:48.455Z,100611.00
2023-05-23T05:16:16.543Z,100605.00
2023-05-23T05:18:44.551Z,100603.00
2023-05-23T05:21:12.423Z,100607.00
2023-05-23T05:23:41.934Z,100614.00
2023-05-23T05:26:09.838Z,100606.00
2023-05-23T05:28:38.264Z,100619.00
2023-05-23T05:31:07.322Z,100621.00
2023-05-23T05:33:36.320Z,100587.00
2023-05-23T05:36:04.406Z,100623.00
2023-05-23T05:38:32.246Z,100627.00
2023-05-23T05:41:01.556Z,100622.00
2023-05-23T05:43:29.424Z,100618.00
2023-05-23T05:45:57.573Z,100622.00
2023-05-23T05:48:26.476Z,100615.00
2023-05-23T05:50:55.053Z,100621.00
2023-05-23T05:53:22.913Z,100608.00
2023-05-23T05:55:51.402Z,100620.00
2023-05-23T05:58:20.909Z,100617.00
2023-05-23T06:00:50.379Z,100612.00
2023-05-23T06:03:18.438Z,100621.00
2023-05-23T06:05:46.374Z,100618.00
2023-05-23T06:08:14.436Z,100626.00
2023-05-23T06:10:42.773Z,100627.00
2023-05-23T06:13:11.434Z,100621.00
2023-05-23T06:15:41.360Z,100624.00
2023-05-23T06:18:09.452Z,100624.00
2023-05-23T06:20:37.743Z,100619.00
2023-05-23T06:23:06.428Z,100614.00
2023-05-23T06:25:34.375Z,100629.00
2023-05-23T06:28:02.515Z,100600.00
2023-05-23T06:30:30.705Z,100608.00
2023-05-23T06:33:00.316Z,100617.00
2023-05-23T06:35:28.715Z,100622.00
2023-05-23T06:37:56.710Z,100619.00
2023-05-23T06:40:24.557Z,100630.00
2023-05-23T06:42:53.388Z,100629.00
2023-05-23T06:45:21.256Z,100626.00
2023-05-23T06:47:49.556Z,100604.00
2023-05-23T06:50:20.206Z,100627.00
2023-05-23T06:52:48.695Z,100618.00
2023-05-23T06:55:19.589Z,100632.00
2023-05-23T06:57:50.500Z,100647.00
2023-05-23T07:00:19.171Z,100631.00
2023-05-23T07:02:48.774Z,100633.00
2023-05-23T07:05:18.613Z,100636.00
2023-05-23T07:07:46.660Z,100639.00
2023-05-23T07:10:14.627Z,100640.00
2023-05-23T07:12:42.556Z,100647.00
2023-05-23T07:15:11.481Z,100658.00
2023-05-23T07:17:39.442Z,100647.00
2023-05-23T07:20:08.896Z,100630.00
2023-05-23T07:22:38.340Z,100647.00
2023-05-23T07:25:07.731Z,100658.00
2023-05-23T07:27:36.353Z,100667.00
2023-05-23T07:30:04.753Z,100662.00
2023-05-23T07:32:32.956Z,100672.00
2023-05-23T07:35:00.890Z,100656.00
2023-05-23T07:37:28.873Z,100670.00
2023-05-23T07:39:58.337Z,100666.00
2023-05-23T07:42:27.407Z,100656.00
2023-05-23T07:44:55.531Z,100679.00
2023-05-23T07:47:24.458Z,100671.00
2023-05-23T07:49:54.454Z,100670.00
2023-05-23T07:52:23.714Z,100668.00
2023-05-23T07:54:51.657Z,100685.00
2023-05-23T07:57:21.207Z,100686.00
2023-05-23T07:59:49.182Z,100698.00
2023-05-23T08:02:17.367Z,100684.00
2023-05-23T08:04:46.096Z,100692.00
2023-05-23T08:07:14.175Z,100687.00
2023-05-23T08:09:44.873Z,100707.00
2023-05-23T08:12:16.354Z,100705.00
2023-05-23T08:14:51.501Z,100720.00
2023-05-23T08:17:20.409Z,100677.00
2023-05-23T08:19:49.434Z,100718.00
2023-05-23T08:22:17.598Z,100719.00
2023-05-23T08:24:45.788Z,100722.00
2023-05-23T08:27:13.916Z,100721.00
2023-05-23T08:29:42.544Z,100720.00
2023-05-23T08:32:12.103Z,100728.00
2023-05-23T08:34:42.562Z,100720.00
2023-05-23T08:37:10.448Z,100726.00
2023-05-23T08:39:38.473Z,100725.00
2023-05-23T08:42:07.094Z,100699.00
2023-05-23T08:44:35.246Z,100714.00
2023-05-23T08:47:06.540Z,100751.00
2023-05-23T08:49:35.979Z,100719.00
2023-05-23T08:52:04.870Z,100729.00
2023-05-23T08:54:34.083Z,100756.00
2023-05-23T08:57:02.541Z,100751.00
2023-05-23T08:59:32.070Z,100747.00
2023-05-23T09:02:01.195Z,100764.00
2023-05-23T09:04:29.365Z,100767.00
2023-05-23T09:07:00.428Z,100777.00
2023-05-23T09:09:28.399Z,100768.00
2023-05-23T09:11:57.100Z,100785.00
2023-05-23T09:14:25.059Z,100787.00
2023-05-23T09:16:53.006Z,100778.00
2023-05-23T09:19:21.964Z,100791.00
2023-05-23T09:21:50.755Z,100802.00
2023-05-23T09:24:20.729Z,100808.00
2023-05-23T09:26:49.488Z,100797.00
2023-05-23T09:29:21.245Z,100826.00
2023-05-23T09:31:49.387Z,100824.00
2023-05-23T09:34:17.296Z,100797.00
2023-05-23T09:36:47.887Z,100830.00
2023-05-23T09:39:15.820Z,100813.00
2023-05-23T09:41:45.202Z,100837.00
2023-05-23T09:44:14.081Z,100836.00
2023-05-23T09:46:42.156Z,100836.00
2023-05-23T09:49:19.431Z,100839.00
2023-05-23T09:51:58.668Z,100835.00
2023-05-23T09:54:27.020Z,100829.00
2023-05-23T09:56:57.708Z,100850.00
2023-05-23T09:59:30.156Z,100858.00
2023-05-23T10:01:59.046Z,100835.00
2023-05-23T10:04:27.274Z,100823.00
2023-05-23T10:07:00.148Z,100868.00
2023-05-23T10:09:30.490Z,100870.00
2023-05-23T10:12:38.616Z,100873.00
2023-05-23T10:15:08.992Z,100878.00
2023-05-23T10:17:43.995Z,100884.00
2023-05-23T10:20:14.120Z,100875.00
2023-05-23T10:22:43.430Z,100893.00
2023-05-23T10:25:11.743Z,100898.00
2023-05-23T10:27:41.438Z,100889.00
2023-05-23T10:30:10.769Z,100897.00
2023-05-23T10:32:40.968Z,100887.00
2023-05-23T10:35:16.632Z,100897.00
2023-05-23T10:37:50.148Z,100913.00
2023-05-23T10:40:25.580Z,100916.00
2023-05-23T10:43:02.362Z,100898.00
2023-05-23T10:45:30.646Z,100913.00
2023-05-23T10:48:01.465Z,100912.00
2023-05-23T10:50:34.406Z,100942.00
2023-05-23T10:53:03.743Z,100927.00
2023-05-23T10:55:35.716Z,100921.00
2023-05-23T10:58:17.500Z,100941.00
2023-05-23T11:00:55.276Z,100940.00
2023-05-23T11:03:35.431Z,100914.00
2023-05-23T11:06:04.117Z,100924.00
2023-05-23T11:08:47.597Z,100955.00
2023-05-23T11:11:17.436Z,100944.00
2023-05-23T11:14:03.977Z,100955.00
2023-05-23T11:16:33.855Z,100970.00
2023-05-23T11:19:26.132Z,100959.00
2023-05-23T11:21:55.986Z,100978.00
2023-05-23T11:24:24.435Z,100983.00
2023-05-23T11:27:00.237Z,100986.00
2023-05-23T11:29:30.071Z,100980.00
2023-05-23T11:31:58.476Z,100982.00
2023-05-23T11:34:27.508Z,100984.00
2023-05-23T11:36:59.561Z,100978.00
2023-05-23T11:39:27.428Z,100972.00
2023-05-23T11:42:03.153Z,100997.00
2023-05-23T11:44:32.415Z,100990.00
2023-05-23T11:47:01.575Z,100980.00
2023-05-23T11:49:30.859Z,100991.00
2023-05-23T11:51:59.825Z,100993.00
2023-05-23T11:54:28.131Z,100991.00
2023-05-23T11:56:56.544Z,100978.00
2023-05-23T11:59:26.203Z,100980.00
2023-05-23T12:01:55.560Z,100981.00
2023-05-23T12:04:23.864Z,100986.00
2023-05-23T12:06:52.604Z,100994.00
2023-05-23T12:09:21.472Z,100999.00
2023-05-23T12:11:50.390Z,100998.00
2023-05-23T12:14:19.373Z,100996.00
2023-05-23T12:16:48.143Z,101000.00
2023-05-23T12:19:18.688Z,100995.00
2023-05-23T12:21:49.629Z,100999.00
2023-05-23T12:24:19.491Z,100982.00
2023-05-23T12:26:51.463Z,100995.00
2023-05-23T12:29:23.726Z,100995.00
2023-05-23T12:31:52.817Z,101005.00
2023-05-23T12:34:25.543Z,100985.00
2023-05-23T12:37:10.406Z,101006.00
2023-05-23T12:39:45.389Z,100988.00
2023-05-23T12:42:13.430Z,101003.00
2023-05-23T12:44:42.433Z,101004.00
2023-05-23T12:47:10.775Z,100999.00
2023-05-23T12:49:40.386Z,101008.00
2023-05-23T12:52:08.628Z,101013.00
2023-05-23T12:54:37.456Z,101012.00
2023-05-23T12:57:05.478Z,101008.00
2023-05-23T12:59:33.477Z,101013.00
2023-05-23T13:02:02.640Z,101016.00
2023-05-23T13:04:32.459Z,101021.00
2023-05-23T13:07:02.044Z,101029.00
2023-05-23T13:09:29.936Z,101028.00
2023-05-23T13:11:59.424Z,101022.00
2023-05-23T13:14:27.428Z,101020.00
2023-05-23T13:16:55.738Z,101022.00
2023-05-23T13:19:23.849Z,101009.00
2023-05-23T13:21:51.930Z,101014.00
2023-05-23T13:24:21.211Z,101039.00
2023-05-23T13:26:49.153Z,101034.00
2023-05-23T13:29:16.991Z,101040.00
2023-05-23T13:31:45.006Z,101047.00
2023-05-23T13:34:13.110Z,101033.00
2023-05-23T13:36:43.192Z,101037.00
2023-05-23T13:39:11.415Z,101006.00
2023-05-23T13:41:41.429Z,101066.00
2023-05-23T13:44:10.785Z,101055.00
2023-05-23T13:49:36.748Z,101018.00
2023-05-23T13:52:04.902Z,101047.00
2023-05-23T13:54:33.015Z,101055.00
2023-05-23T13:57:03.502Z,101068.00
2023-05-23T13:59:31.603Z,101072.00
2023-05-23T14:01:59.554Z,101069.00
2023-05-23T14:04:27.587Z,101061.00
2023-05-23T14:06:55.630Z,101065.00
2023-05-23T14:09:23.704Z,101057.00
2023-05-23T14:11:52.446Z,101062.00
2023-05-23T14:14:21.989Z,101077.00
2023-05-23T14:16:51.933Z,101077.00
2023-05-23T14:19:20.044Z,101082.00
2023-05-23T14:21:48.199Z,101087.00
2023-05-23T14:24:16.146Z,101091.00
2023-05-23T14:26:44.523Z,101084.00
2023-05-23T14:29:12.537Z,101087.00
2023-05-23T14:31:41.956Z,101099.00
2023-05-23T14:34:10.049Z,101092.00
2023-05-23T14:36:38.386Z,101093.00
2023-05-23T14:39:10.509Z,101082.00
2023-05-23T14:41:38.724Z,101092.00
2023-05-23T14:44:07.019Z,101092.00
2023-05-23T14:46:35.350Z,101094.00
2023-05-23T14:49:07.199Z,101101.00
2023-05-23T14:51:48.398Z,101080.00
2023-05-23T14:54:19.105Z,101110.00
2023-05-23T14:56:47.354Z,101072.00
2023-05-23T14:59:17.061Z,101110.00
2023-05-23T15:01:45.341Z,101107.00
2023-05-23T15:04:15.068Z,101078.00
2023-05-23T15:06:43.072Z,101086.00
2023-05-23T15:09:12.207Z,101115.00
2023-05-23T15:11:42.500Z,101086.00
2023-05-23T15:14:10.679Z,101096.00
2023-05-23T15:16:39.248Z,101136.00
2023-05-23T15:19:08.068Z,101123.00
2023-05-23T15:21:38.518Z,101128.00
2023-05-23T15:24:09.419Z,101134.00
2023-05-23T15:26:37.422Z,101134.00
2023-05-23T15:29:06.441Z,101116.00
2023-05-23T15:31:34.404Z,101116.00
2023-05-23T15:34:02.531Z,101124.00
2023-05-23T15:36:30.844Z,101132.00
2023-05-23T15:39:00.172Z,101129.00
2023-05-23T15:41:28.219Z,101123.00
2023-05-23T15:43:56.178Z,101133.00
2023-05-23T15:46:24.241Z,101139.00
2023-05-23T15:48:52.278Z,101134.00
2023-05-23T15:51:20.462Z,101104.00
2023-05-23T15:54:00.662Z,101127.00
2023-05-23T15:56:31.890Z,101140.00
2023-05-23T15:58:59.823Z,101132.00
2023-05-23T16:01:29.687Z,101130.00
2023-05-23T16:03:57.823Z,101153.00
2023-05-23T16:06:28.320Z,101129.00
2023-05-23T16:08:56.491Z,101137.00
2023-05-23T16:11:24.527Z,101119.00
2023-05-23T16:13:54.726Z,101142.00
2023-05-23T16:16:22.807Z,101141.00
2023-05-23T16:18:52.205Z,101138.00
2023-05-23T16:21:21.024Z,101132.00
2023-05-23T16:23:49.443Z,101143.00
2023-05-23T16:26:18.147Z,101138.00
2023-05-23T16:28:46.472Z,101146.00
2023-05-23T16:31:17.340Z,101148.00
2023-05-23T16:33:45.604Z,101144.00
2023-05-23T16:36:13.548Z,101132.00
2023-05-23T16:38:41.574Z,101140.00
2023-05-23T16:41:09.734Z,101135.00
2023-05-23T16:43:37.753Z,101134.00
2023-05-23T16:46:06.240Z,101139.00
2023-05-23T16:48:35.780Z,101118.00
2023-05-23T16:51:03.785Z,101146.00
2023-05-23T16:53:32.615Z,101151.00
2023-05-23T16:56:10.415Z,101121.00
2023-05-23T16:58:38.638Z,101152.00
2023-05-23T17:01:07.747Z,101147.00
2023-05-23T17:03:37.464Z,101122.00
2023-05-23T17:06:05.860Z,101147.00
2023-05-23T17:08:33.966Z,101141.00
2023-05-23T17:11:02.682Z,101141.00
2023-05-23T17:13:30.688Z,101121.00
2023-05-23T17:15:58.625Z,101155.00
2023-05-23T17:18:26.890Z,101156.00
2023-05-23T17:20:56.458Z,101146.00
2023-05-23T17:23:24.426Z,101146.00
2023-05-23T17:25:52.834Z,101161.00
2023-05-23T17:28:21.537Z,101138.00
2023-05-23T17:30:51.653Z,101168.00
2023-05-23T17:33:19.776Z,101141.00
2023-05-23T17:35:47.911Z,101141.00
2023-05-23T17:38:17.593Z,101164.00
2023-05-23T17:40:45.876Z,101153.00
2023-05-23T17:43:14.062Z,101142.00
2023-05-23T17:45:42.104Z,101163.00
2023-05-23T17:48:10.348Z,101146.00
2023-05-23T17:50:39.038Z,101144.00
2023-05-23T17:53:07.175Z,101144.00
2023-05-23T17:55:37.609Z,101168.00
2023-05-23T17:58:05.536Z,101148.00
2023-05-23T18:00:34.504Z,101177.00
2023-05-23T18:03:02.904Z,101183.00
2023-05-23T18:05:30.833Z,101197.00
2023-05-23T18:07:59.508Z,101179.00
2023-05-23T18:10:27.511Z,101186.00
2023-05-23T18:12:56.883Z,101193.00
2023-05-23T18:15:25.675Z,101189.00
2023-05-23T18:17:55.679Z,101204.00
2023-05-23T18:20:23.773Z,101196.00
2023-05-23T18:22:53.950Z,101216.00
2023-05-23T18:25:27.294Z,101200.00
2023-05-23T18:27:58.866Z,101207.00
2023-05-23T18:30:27.574Z,101210.00
2023-05-23T18:32:55.760Z,101221.00
2023-05-23T18:35:25.777Z,101223.00
2023-05-23T18:37:54.503Z,101223.00
2023-05-23T18:40:24.091Z,101230.00
2023-05-23T18:42:52.327Z,101221.00
2023-05-23T18:45:21.984Z,101226.00
2023-05-23T18:47:49.984Z,101230.00
2023-05-23T18:50:18.635Z,101246.00
2023-05-23T18:52:46.547Z,101253.00
2023-05-23T18:55:14.470Z,101246.00
2023-05-23T18:57:42.513Z,101251.00
2023-05-23T19:00:11.676Z,101260.00
2023-05-23T19:02:44.324Z,101259.00
2023-05-23T19:05:12.728Z,101257.00
2023-05-23T19:07:40.844Z,101264.00
2023-05-23T19:10:09.520Z,101256.00
2023-05-23T19:12:38.771Z,101255.00
2023-05-23T19:15:09.282Z,101268.00
2023-05-23T19:17:37.342Z,101274.00
2023-05-23T19:20:08.231Z,101272.00
2023-05-23T19:22:47.040Z,101271.00
2023-05-23T19:25:18.924Z,101281.00
2023-05-23T19:27:46.909Z,101281.00
2023-05-23T19:30:14.844Z,101288.00
2023-05-23T19:32:42.808Z,101294.00
2023-05-23T19:35:13.991Z,101298.00
2023-05-23T19:37:44.435Z,101288.00
2023-05-23T19:40:13.454Z,101299.00
2023-05-23T19:42:41.377Z,101292.00
2023-05-23T19:45:09.976Z,101291.00
2023-05-23T19:47:37.867Z,101293.00
2023-05-23T19:50:07.334Z,101305.00
2023-05-23T19:52:36.727Z,101300.00
2023-05-23T19:55:05.129Z,101303.00
2023-05-23T19:57:33.173Z,101290.00
2023-05-23T20:00:01.469Z,101308.00
2023-05-23T20:02:29.562Z,101294.00
2023-05-23T20:04:57.384Z,101311.00
2023-05-23T20:07:25.547Z,101306.00
2023-05-23T20:09:56.615Z,101306.00
2023-05-23T20:12:24.496Z,101311.00
2023-05-23T20:14:52.519Z,101320.00
2023-05-23T20:17:20.504Z,101324.00
2023-05-23T20:19:48.587Z,101329.00
2023-05-23T20:22:16.547Z,101309.00
2023-05-23T20:24:44.389Z,101324.00
2023-05-23T20:27:13.803Z,101337.00
2023-05-23T20:29:41.744Z,101322.00
2023-05-23T20:32:09.671Z,101328.00
2023-05-23T20:34:37.562Z,101319.00
2023-05-23T20:37:06.540Z,101319.00
2023-05-23T20:39:34.998Z,101329.00
2023-05-23T20:42:03.085Z,101320.00
2023-05-23T20:44:32.738Z,101327.00
2023-05-23T20:47:00.855Z,101327.00
2023-05-23T20:49:28.770Z,101333.00
2023-05-23T20:51:56.697Z,101344.00
2023-05-23T20:54:25.436Z,101349.00
2023-05-23T20:56:53.948Z,101340.00
2023-05-23T20:59:22.070Z,101341.00
2023-05-23T21:01:52.034Z,101351.00
2023-05-23T21:04:20.479Z,101348.00
2023-05-23T21:06:48.401Z,101343.00
2023-05-23T21:09:17.319Z,101355.00
2023-05-23T21:11:45.165Z,101357.00
2023-05-23T21:14:13.931Z,101359.00
2023-05-23T21:16:41.772Z,101352.00
2023-05-23T21:19:11.118Z,101333.00
2023-05-23T21:21:39.505Z,101359.00
2023-05-23T21:24:07.667Z,101348.00
2023-05-23T21:26:35.550Z,101343.00
2023-05-23T21:29:03.555Z,101339.00
2023-05-23T21:31:40.941Z,101352.00
2023-05-23T21:34:23.249Z,101342.00
2023-05-23T21:36:52.309Z,101358.00
2023-05-23T21:39:20.270Z,101351.00
2023-05-23T21:41:48.118Z,101360.00
2023-05-23T21:44:17.764Z,101356.00
2023-05-23T21:46:45.895Z,101360.00
2023-05-23T21:49:15.688Z,101365.00
2023-05-23T21:51:44.129Z,101334.00
2023-05-23T21:54:12.059Z,101368.00
2023-05-23T21:56:41.130Z,101362.00
2023-05-23T21:59:09.322Z,101352.00
2023-05-23T22:01:37.230Z,101365.00
2023-05-23T22:04:05.345Z,101356.00
2023-05-23T22:06:34.742Z,101367.00
2023-05-23T22:09:02.836Z,101361.00
2023-05-23T22:11:33.946Z,101368.00
2023-05-23T22:14:02.402Z,101356.00
2023-05-23T22:16:33.547Z,101361.00
2023-05-23T22:19:02.136Z,101356.00
2023-05-23T22:21:30.235Z,101357.00
2023-05-23T22:24:00.066Z,101356.00
2023-05-23T22:26:28.415Z,101343.00
2023-05-23T22:28:56.432Z,101335.00
2023-05-23T22:31:25.020Z,101346.00
2023-05-23T22:33:53.396Z,101334.00
2023-05-23T22:36:22.038Z,101337.00
2023-05-23T22:38:50.052Z,101343.00
2023-05-23T22:41:19.710Z,101321.00
2023-05-23T22:43:47.889Z,101327.00
2023-05-23T22:46:15.965Z,101338.00
2023-05-23T22:48:45.038Z,101357.00
2023-05-23T22:51:14.596Z,101345.00
2023-05-23T22:53:43.328Z,101358.00
2023-05-23T22:56:11.339Z,101343.00
2023-05-23T22:58:40.761Z,101350.00
2023-05-23T23:01:08.627Z,101357.00
2023-05-23T23:03:36.567Z,101351.00
2023-05-23T23:06:06.401Z,101344.00
2023-05-23T23:08:34.611Z,101349.00
2023-05-23T23:11:02.529Z,101345.00
2023-05-23T23:13:31.530Z,101346.00
2023-05-23T23:16:00.764Z,101357.00
2023-05-23T23:18:28.559Z,101366.00
2023-05-23T23:20:56.392Z,101346.00
2023-05-23T23:23:24.292Z,101359.00
2023-05-23T23:25:52.391Z,101352.00
2023-05-23T23:28:20.826Z,101349.00
2023-05-23T23:30:48.847Z,101361.00
2023-05-23T23:33:18.241Z,101350.00
2023-05-23T23:35:48.479Z,101358.00
2023-05-23T23:38:16.584Z,101361.00
2023-05-23T23:40:45.681Z,101371.00
2023-05-23T23:43:13.754Z,101370.00
2023-05-23T23:45:41.589Z,101377.00
2023-05-23T23:48:09.666Z,101367.00
2023-05-23T23:50:39.002Z,101374.00
2023-05-23T23:53:07.888Z,101362.00
2023-05-23T23:55:35.799Z,101365.00
2023-05-23T23:58:03.669Z,101362.00
